Terminal Aerodrome Forecast
Issued by NWS Cleveland, OH

Home | Current Version | Previous Version | Graphics & Text | Print | Product List | Glossary On
Versions: 1 2 3 4 5 6 7 8 9 10 11 12 13 14
000
FTUS41 KCLE 210500
TAFCAK
TAF
KCAK 210539Z 2106/2206 VRB04KT P6SM -SHRA SCT045 OVC060
     FM210900 04004KT P6SM OVC050
     FM211600 34007KT P6SM OVC070
     FM220100 27006KT P6SM SCT080 BKN120=

USA.gov is the U.S. government's official web portal to all federal, state and local government web resources and services.